sensor_id;sensor_type;location;lat;lon;timestamp;pressure;altitude;pressure_sealevel;temperature
15709;BMP180;7954;51.914;8.420;2023-07-16T00:02:10;99657.09;;;27.29
15709;BMP180;7954;51.914;8.420;2023-07-16T00:04:38;99667.44;;;27.29
15709;BMP180;7954;51.914;8.420;2023-07-16T00:07:06;99665.28;;;27.15
15709;BMP180;7954;51.914;8.420;2023-07-16T00:09:34;99670.78;;;27.18
15709;BMP180;7954;51.914;8.420;2023-07-16T00:12:04;99685.97;;;27.24
15709;BMP180;7954;51.914;8.420;2023-07-16T00:14:32;99680.41;;;27.29
15709;BMP180;7954;51.914;8.420;2023-07-16T00:17:02;99654.75;;;27.04
15709;BMP180;7954;51.914;8.420;2023-07-16T00:19:30;99651.91;;;27.01
15709;BMP180;7954;51.914;8.420;2023-07-16T00:21:58;99661.06;;;26.97
15709;BMP180;7954;51.914;8.420;2023-07-16T00:24:26;99672.75;;;27.02
15709;BMP180;7954;51.914;8.420;2023-07-16T00:26:54;99675.88;;;26.98
15709;BMP180;7954;51.914;8.420;2023-07-16T00:29:21;99694.19;;;26.91
15709;BMP180;7954;51.914;8.420;2023-07-16T00:31:49;99701.81;;;26.90
15709;BMP180;7954;51.914;8.420;2023-07-16T00:34:20;99690.50;;;26.79
15709;BMP180;7954;51.914;8.420;2023-07-16T00:36:48;99697.47;;;26.80
15709;BMP180;7954;51.914;8.420;2023-07-16T00:39:15;99697.47;;;26.80
15709;BMP180;7954;51.914;8.420;2023-07-16T00:41:43;99694.34;;;26.74
15709;BMP180;7954;51.914;8.420;2023-07-16T00:44:11;99697.34;;;26.79
15709;BMP180;7954;51.914;8.420;2023-07-16T00:46:39;99702.19;;;26.84
15709;BMP180;7954;51.914;8.420;2023-07-16T00:49:07;99697.41;;;26.89
15709;BMP180;7954;51.914;8.420;2023-07-16T00:51:38;99699.16;;;26.80
15709;BMP180;7954;51.914;8.420;2023-07-16T00:54:07;99681.47;;;26.84
15709;BMP180;7954;51.914;8.420;2023-07-16T00:56:36;99692.47;;;26.82
15709;BMP180;7954;51.914;8.420;2023-07-16T00:59:04;99698.22;;;26.69
15709;BMP180;7954;51.914;8.420;2023-07-16T01:01:32;99699.53;;;26.74
15709;BMP180;7954;51.914;8.420;2023-07-16T01:04:01;99714.22;;;26.65
15709;BMP180;7954;51.914;8.420;2023-07-16T01:06:33;99712.81;;;26.69
15709;BMP180;7954;51.914;8.420;2023-07-16T01:09:06;99709.47;;;26.70
15709;BMP180;7954;51.914;8.420;2023-07-16T01:11:35;99726.53;;;26.68
15709;BMP180;7954;51.914;8.420;2023-07-16T01:14:05;99725.66;;;26.67
15709;BMP180;7954;51.914;8.420;2023-07-16T01:16:34;99724.88;;;26.68
15709;BMP180;7954;51.914;8.420;2023-07-16T01:19:03;99716.81;;;26.65
15709;BMP180;7954;51.914;8.420;2023-07-16T01:21:35;99702.47;;;26.69
15709;BMP180;7954;51.914;8.420;2023-07-16T01:27:21;99714.78;;;26.71
15709;BMP180;7954;51.914;8.420;2023-07-16T01:29:54;99714.84;;;26.63
15709;BMP180;7954;51.914;8.420;2023-07-16T01:32:25;99701.56;;;26.50
15709;BMP180;7954;51.914;8.420;2023-07-16T01:34:53;99711.69;;;26.39
15709;BMP180;7954;51.914;8.420;2023-07-16T01:37:21;99718.63;;;26.21
15709;BMP180;7954;51.914;8.420;2023-07-16T01:39:49;99714.13;;;26.10
15709;BMP180;7954;51.914;8.420;2023-07-16T01:42:18;99724.22;;;26.07
15709;BMP180;7954;51.914;8.420;2023-07-16T01:44:46;99723.59;;;26.10
15709;BMP180;7954;51.914;8.420;2023-07-16T01:47:23;99716.97;;;26.13
15709;BMP180;7954;51.914;8.420;2023-07-16T01:49:52;99721.25;;;26.13
15709;BMP180;7954;51.914;8.420;2023-07-16T01:52:21;99720.38;;;26.12
15709;BMP180;7954;51.914;8.420;2023-07-16T01:54:48;99728.75;;;26.10
15709;BMP180;7954;51.914;8.420;2023-07-16T01:57:16;99717.16;;;26.15
15709;BMP180;7954;51.914;8.420;2023-07-16T01:59:44;99713.78;;;26.16
15709;BMP180;7954;51.914;8.420;2023-07-16T02:02:13;99711.41;;;26.09
15709;BMP180;7954;51.914;8.420;2023-07-16T02:04:42;99712.44;;;26.11
15709;BMP180;7954;51.914;8.420;2023-07-16T02:07:10;99711.66;;;26.12
15709;BMP180;7954;51.914;8.420;2023-07-16T02:09:39;99707.84;;;26.17
15709;BMP180;7954;51.914;8.420;2023-07-16T02:12:08;99705.59;;;26.11
15709;BMP180;7954;51.914;8.420;2023-07-16T02:14:36;99721.13;;;26.11
15709;BMP180;7954;51.914;8.420;2023-07-16T02:17:04;99718.00;;;25.97
15709;BMP180;7954;51.914;8.420;2023-07-16T02:19:32;99727.56;;;26.06
15709;BMP180;7954;51.914;8.420;2023-07-16T02:22:02;99732.38;;;26.12
15709;BMP180;7954;51.914;8.420;2023-07-16T02:24:30;99727.06;;;26.10
15709;BMP180;7954;51.914;8.420;2023-07-16T02:26:58;99730.00;;;26.05
15709;BMP180;7954;51.914;8.420;2023-07-16T02:29:26;99725.28;;;26.01
15709;BMP180;7954;51.914;8.420;2023-07-16T02:31:54;99752.22;;;26.03
15709;BMP180;7954;51.914;8.420;2023-07-16T02:34:22;99750.88;;;25.98
15709;BMP180;7954;51.914;8.420;2023-07-16T02:36:50;99751.69;;;25.89
15709;BMP180;7954;51.914;8.420;2023-07-16T02:39:20;99758.41;;;25.87
15709;BMP180;7954;51.914;8.420;2023-07-16T02:41:48;99752.81;;;25.74
15709;BMP180;7954;51.914;8.420;2023-07-16T02:44:16;99757.38;;;25.68
15709;BMP180;7954;51.914;8.420;2023-07-16T02:46:45;99772.59;;;25.65
15709;BMP180;7954;51.914;8.420;2023-07-16T02:49:13;99778.72;;;25.48
15709;BMP180;7954;51.914;8.420;2023-07-16T02:51:41;99782.25;;;25.40
15709;BMP180;7954;51.914;8.420;2023-07-16T02:54:09;99784.38;;;25.44
15709;BMP180;7954;51.914;8.420;2023-07-16T02:56:38;99779.03;;;25.43
15709;BMP180;7954;51.914;8.420;2023-07-16T02:59:07;99784.50;;;25.37
15709;BMP180;7954;51.914;8.420;2023-07-16T03:01:35;99788.31;;;25.41
15709;BMP180;7954;51.914;8.420;2023-07-16T03:04:03;99787.84;;;25.36
15709;BMP180;7954;51.914;8.420;2023-07-16T03:06:31;99787.25;;;25.30
15709;BMP180;7954;51.914;8.420;2023-07-16T03:08:59;99791.66;;;25.31
15709;BMP180;7954;51.914;8.420;2023-07-16T03:11:27;99774.78;;;25.27
15709;BMP180;7954;51.914;8.420;2023-07-16T03:13:57;99796.41;;;25.10
15709;BMP180;7954;51.914;8.420;2023-07-16T03:16:25;99796.53;;;25.12
15709;BMP180;7954;51.914;8.420;2023-07-16T03:18:53;99796.69;;;24.96
15709;BMP180;7954;51.914;8.420;2023-07-16T03:21:21;99802.03;;;25.06
15709;BMP180;7954;51.914;8.420;2023-07-16T03:23:49;99808.09;;;25.07
15709;BMP180;7954;51.914;8.420;2023-07-16T03:26:17;99813.28;;;25.07
15709;BMP180;7954;51.914;8.420;2023-07-16T03:28:45;99807.63;;;25.02
15709;BMP180;7954;51.914;8.420;2023-07-16T03:31:15;99819.47;;;25.00
15709;BMP180;7954;51.914;8.420;2023-07-16T03:33:44;99819.16;;;24.89
15709;BMP180;7954;51.914;8.420;2023-07-16T03:36:12;99818.72;;;24.93
15709;BMP180;7954;51.914;8.420;2023-07-16T03:38:40;99823.59;;;24.90
15709;BMP180;7954;51.914;8.420;2023-07-16T03:41:08;99829.03;;;24.93
15709;BMP180;7954;51.914;8.420;2023-07-16T03:43:36;99822.47;;;24.79
15709;BMP180;7954;51.914;8.420;2023-07-16T03:46:04;99823.53;;;24.73
15709;BMP180;7954;51.914;8.420;2023-07-16T03:48:36;99825.81;;;24.78
15709;BMP180;7954;51.914;8.420;2023-07-16T03:51:04;99836.34;;;24.80
15709;BMP180;7954;51.914;8.420;2023-07-16T03:53:32;99829.19;;;24.77
15709;BMP180;7954;51.914;8.420;2023-07-16T03:56:01;99840.13;;;24.83
15709;BMP180;7954;51.914;8.420;2023-07-16T03:58:30;99843.47;;;24.82
15709;BMP180;7954;51.914;8.420;2023-07-16T04:00:58;99844.22;;;24.81
15709;BMP180;7954;51.914;8.420;2023-07-16T04:03:26;99846.50;;;24.87
15709;BMP180;7954;51.914;8.420;2023-07-16T04:06:02;99846.84;;;24.90
15709;BMP180;7954;51.914;8.420;2023-07-16T04:08:30;99856.38;;;24.91
15709;BMP180;7954;51.914;8.420;2023-07-16T04:10:58;99854.41;;;24.97
15709;BMP180;7954;51.914;8.420;2023-07-16T04:13:26;99853.88;;;25.08
15709;BMP180;7954;51.914;8.420;2023-07-16T04:15:54;99860.56;;;25.14
15709;BMP180;7954;51.914;8.420;2023-07-16T04:18:25;99860.13;;;25.10
15709;BMP180;7954;51.914;8.420;2023-07-16T04:20:54;99870.91;;;25.14
15709;BMP180;7954;51.914;8.420;2023-07-16T04:23:25;99870.13;;;25.07
15709;BMP180;7954;51.914;8.420;2023-07-16T04:25:54;99874.53;;;25.08
15709;BMP180;7954;51.914;8.420;2023-07-16T04:28:22;99877.41;;;25.11
15709;BMP180;7954;51.914;8.420;2023-07-16T04:30:51;99878.44;;;25.04
15709;BMP180;7954;51.914;8.420;2023-07-16T04:33:19;99885.63;;;25.07
15709;BMP180;7954;51.914;8.420;2023-07-16T04:35:47;99888.78;;;25.04
15709;BMP180;7954;51.914;8.420;2023-07-16T04:38:15;99885.97;;;25.10
15709;BMP180;7954;51.914;8.420;2023-07-16T04:40:44;99886.09;;;25.11
15709;BMP180;7954;51.914;8.420;2023-07-16T04:43:12;99885.34;;;25.12
15709;BMP180;7954;51.914;8.420;2023-07-16T04:45:40;99878.50;;;25.13
15709;BMP180;7954;51.914;8.420;2023-07-16T04:48:08;99884.75;;;25.06
15709;BMP180;7954;51.914;8.420;2023-07-16T04:50:36;99883.31;;;25.01
15709;BMP180;7954;51.914;8.420;2023-07-16T04:53:04;99884.88;;;25.08
15709;BMP180;7954;51.914;8.420;2023-07-16T04:55:36;99883.81;;;25.06
15709;BMP180;7954;51.914;8.420;2023-07-16T04:58:06;99885.31;;;25.04
15709;BMP180;7954;51.914;8.420;2023-07-16T05:00:34;99890.06;;;25.08
15709;BMP180;7954;51.914;8.420;2023-07-16T05:03:02;99896.13;;;25.08
15709;BMP180;7954;51.914;8.420;2023-07-16T05:05:31;99893.13;;;25.12
15709;BMP180;7954;51.914;8.420;2023-07-16T05:07:59;99884.59;;;25.22
15709;BMP180;7954;51.914;8.420;2023-07-16T05:10:28;99893.41;;;25.15
15709;BMP180;7954;51.914;8.420;2023-07-16T05:12:57;99905.28;;;25.38
15709;BMP180;7954;51.914;8.420;2023-07-16T05:15:26;99901.00;;;25.30
15709;BMP180;7954;51.914;8.420;2023-07-16T05:17:54;99909.38;;;25.36
15709;BMP180;7954;51.914;8.420;2023-07-16T05:20:24;99906.78;;;25.36
15709;BMP180;7954;51.914;8.420;2023-07-16T05:22:52;99913.81;;;25.37
15709;BMP180;7954;51.914;8.420;2023-07-16T05:25:20;99914.88;;;25.39
15709;BMP180;7954;51.914;8.420;2023-07-16T05:27:48;99909.41;;;25.45
15709;BMP180;7954;51.914;8.420;2023-07-16T05:30:16;99913.69;;;25.53
15709;BMP180;7954;51.914;8.420;2023-07-16T05:32:45;99905.13;;;25.54
15709;BMP180;7954;51.914;8.420;2023-07-16T05:35:13;99924.00;;;25.44
15709;BMP180;7954;51.914;8.420;2023-07-16T05:37:41;99919.88;;;25.46
15709;BMP180;7954;51.914;8.420;2023-07-16T05:40:11;99923.84;;;25.60
15709;BMP180;7954;51.914;8.420;2023-07-16T05:42:38;99925.88;;;25.79
15709;BMP180;7954;51.914;8.420;2023-07-16T05:45:07;99927.50;;;25.70
15709;BMP180;7954;51.914;8.420;2023-07-16T05:47:35;99935.13;;;25.77
15709;BMP180;7954;51.914;8.420;2023-07-16T05:50:06;99926.31;;;25.75
15709;BMP180;7954;51.914;8.420;2023-07-16T05:52:35;99928.44;;;25.79
15709;BMP180;7954;51.914;8.420;2023-07-16T05:55:03;99933.78;;;25.72
15709;BMP180;7954;51.914;8.420;2023-07-16T05:57:31;99936.50;;;25.82
15709;BMP180;7954;51.914;8.420;2023-07-16T05:59:59;99929.03;;;25.60
15709;BMP180;7954;51.914;8.420;2023-07-16T06:02:29;99931.94;;;25.54
15709;BMP180;7954;51.914;8.420;2023-07-16T06:04:57;99929.78;;;25.42
15709;BMP180;7954;51.914;8.420;2023-07-16T06:07:26;99942.13;;;25.44
15709;BMP180;7954;51.914;8.420;2023-07-16T06:09:54;99942.56;;;25.40
15709;BMP180;7954;51.914;8.420;2023-07-16T06:12:22;99955.34;;;25.56
15709;BMP180;7954;51.914;8.420;2023-07-16T06:14:50;99951.84;;;25.38
15709;BMP180;7954;51.914;8.420;2023-07-16T06:17:18;99962.81;;;25.53
15709;BMP180;7954;51.914;8.420;2023-07-16T06:19:47;99951.88;;;25.81
15709;BMP180;7954;51.914;8.420;2023-07-16T06:22:17;99950.50;;;25.93
15709;BMP180;7954;51.914;8.420;2023-07-16T06:24:47;99967.22;;;25.96
15709;BMP180;7954;51.914;8.420;2023-07-16T06:27:15;99977.28;;;26.10
15709;BMP180;7954;51.914;8.420;2023-07-16T06:29:43;99978.19;;;25.93
15709;BMP180;7954;51.914;8.420;2023-07-16T06:32:13;99978.81;;;25.99
15709;BMP180;7954;51.914;8.420;2023-07-16T06:34:41;99982.63;;;26.03
15709;BMP180;7954;51.914;8.420;2023-07-16T06:37:09;99977.09;;;26.25
15709;BMP180;7954;51.914;8.420;2023-07-16T06:39:38;99981.69;;;26.36
15709;BMP180;7954;51.914;8.420;2023-07-16T06:42:08;99981.69;;;26.11
15709;BMP180;7954;51.914;8.420;2023-07-16T06:44:36;99988.09;;;26.40
15709;BMP180;7954;51.914;8.420;2023-07-16T06:47:04;99986.88;;;26.36
15709;BMP180;7954;51.914;8.420;2023-07-16T06:49:32;99982.91;;;26.14
15709;BMP180;7954;51.914;8.420;2023-07-16T06:52:00;99987.75;;;26.37
15709;BMP180;7954;51.914;8.420;2023-07-16T06:54:29;99991.53;;;26.32
15709;BMP180;7954;51.914;8.420;2023-07-16T06:56:57;99998.56;;;26.16
15709;BMP180;7954;51.914;8.420;2023-07-16T06:59:27;99991.56;;;26.23
15709;BMP180;7954;51.914;8.420;2023-07-16T07:01:56;99993.81;;;26.46
15709;BMP180;7954;51.914;8.420;2023-07-16T07:04:24;100001.56;;;26.62
15709;BMP180;7954;51.914;8.420;2023-07-16T07:06:52;99996.91;;;26.16
15709;BMP180;7954;51.914;8.420;2023-07-16T07:09:20;100001.47;;;26.27
15709;BMP180;7954;51.914;8.420;2023-07-16T07:11:48;100003.59;;;26.23
15709;BMP180;7954;51.914;8.420;2023-07-16T07:14:16;100003.91;;;26.43
15709;BMP180;7954;51.914;8.420;2023-07-16T07:16:46;100002.41;;;26.36
15709;BMP180;7954;51.914;8.420;2023-07-16T07:19:14;99991.69;;;26.59
15709;BMP180;7954;51.914;8.420;2023-07-16T07:21:42;100001.91;;;26.92
15709;BMP180;7954;51.914;8.420;2023-07-16T07:24:10;99985.81;;;27.13
15709;BMP180;7954;51.914;8.420;2023-07-16T07:26:38;99985.06;;;27.14
15709;BMP180;7954;51.914;8.420;2023-07-16T07:29:06;99990.78;;;27.02
15709;BMP180;7954;51.914;8.420;2023-07-16T07:31:35;99994.16;;;26.84
15709;BMP180;7954;51.914;8.420;2023-07-16T07:34:04;99991.31;;;26.72
15709;BMP180;7954;51.914;8.420;2023-07-16T07:36:32;100003.81;;;26.68
15709;BMP180;7954;51.914;8.420;2023-07-16T07:39:00;99984.16;;;27.05
15709;BMP180;7954;51.914;8.420;2023-07-16T07:41:29;99985.56;;;27.28
15709;BMP180;7954;51.914;8.420;2023-07-16T07:43:57;99991.84;;;27.49
15709;BMP180;7954;51.914;8.420;2023-07-16T07:46:26;99988.91;;;27.54
15709;BMP180;7954;51.914;8.420;2023-07-16T07:48:54;99980.41;;;27.74
15709;BMP180;7954;51.914;8.420;2023-07-16T07:51:24;100000.13;;;27.90
15709;BMP180;7954;51.914;8.420;2023-07-16T07:53:52;99996.19;;;27.67
15709;BMP180;7954;51.914;8.420;2023-07-16T07:56:20;99992.50;;;27.65
15709;BMP180;7954;51.914;8.420;2023-07-16T07:58:48;99991.56;;;27.46
15709;BMP180;7954;51.914;8.420;2023-07-16T08:01:16;99985.28;;;27.71
15709;BMP180;7954;51.914;8.420;2023-07-16T08:03:46;99996.63;;;27.71
15709;BMP180;7954;51.914;8.420;2023-07-16T08:06:15;99989.09;;;27.47
15709;BMP180;7954;51.914;8.420;2023-07-16T08:08:46;99985.78;;;27.40
15709;BMP180;7954;51.914;8.420;2023-07-16T08:11:14;100001.41;;;27.58
15709;BMP180;7954;51.914;8.420;2023-07-16T08:13:42;99990.41;;;27.61
15709;BMP180;7954;51.914;8.420;2023-07-16T08:16:10;100001.50;;;27.68
15709;BMP180;7954;51.914;8.420;2023-07-16T08:18:38;99990.09;;;28.13
15709;BMP180;7954;51.914;8.420;2023-07-16T08:21:06;100002.28;;;28.04
15709;BMP180;7954;51.914;8.420;2023-07-16T08:23:34;100009.88;;;28.29
15709;BMP180;7954;51.914;8.420;2023-07-16T08:26:04;100003.69;;;28.19
15709;BMP180;7954;51.914;8.420;2023-07-16T08:28:32;100009.03;;;28.49
15709;BMP180;7954;51.914;8.420;2023-07-16T08:31:00;100006.38;;;28.67
15709;BMP180;7954;51.914;8.420;2023-07-16T08:33:28;100012.38;;;29.04
15709;BMP180;7954;51.914;8.420;2023-07-16T08:35:56;100015.63;;;28.73
15709;BMP180;7954;51.914;8.420;2023-07-16T08:38:24;100009.97;;;28.77
15709;BMP180;7954;51.914;8.420;2023-07-16T08:40:52;100027.84;;;28.93
15709;BMP180;7954;51.914;8.420;2023-07-16T08:43:22;100004.47;;;29.13
15709;BMP180;7954;51.914;8.420;2023-07-16T08:45:51;100010.00;;;29.35
15709;BMP180;7954;51.914;8.420;2023-07-16T08:48:20;100020.31;;;29.06
15709;BMP180;7954;51.914;8.420;2023-07-16T08:50:49;100034.41;;;28.79
15709;BMP180;7954;51.914;8.420;2023-07-16T08:53:17;100029.38;;;28.91
15709;BMP180;7954;51.914;8.420;2023-07-16T08:55:47;100026.94;;;29.02
15709;BMP180;7954;51.914;8.420;2023-07-16T08:58:19;100036.63;;;29.23
15709;BMP180;7954;51.914;8.420;2023-07-16T09:00:51;100015.75;;;29.03
15709;BMP180;7954;51.914;8.420;2023-07-16T09:03:19;100038.38;;;29.52
15709;BMP180;7954;51.914;8.420;2023-07-16T09:05:47;100031.88;;;29.47
15709;BMP180;7954;51.914;8.420;2023-07-16T09:08:15;100031.34;;;29.31
15709;BMP180;7954;51.914;8.420;2023-07-16T09:10:43;100032.91;;;29.49
15709;BMP180;7954;51.914;8.420;2023-07-16T09:13:18;100012.59;;;29.65
15709;BMP180;7954;51.914;8.420;2023-07-16T09:15:51;100015.84;;;29.63
15709;BMP180;7954;51.914;8.420;2023-07-16T09:18:20;100032.53;;;29.55
15709;BMP180;7954;51.914;8.420;2023-07-16T09:20:48;100027.97;;;29.62
15709;BMP180;7954;51.914;8.420;2023-07-16T09:23:18;100039.06;;;29.90
15709;BMP180;7954;51.914;8.420;2023-07-16T09:25:46;100038.28;;;29.71
15709;BMP180;7954;51.914;8.420;2023-07-16T09:28:14;100027.69;;;29.69
15709;BMP180;7954;51.914;8.420;2023-07-16T09:30:42;100026.81;;;29.69
15709;BMP180;7954;51.914;8.420;2023-07-16T09:33:13;100046.72;;;29.78
15709;BMP180;7954;51.914;8.420;2023-07-16T09:35:41;100044.63;;;29.84
15709;BMP180;7954;51.914;8.420;2023-07-16T09:38:09;100037.88;;;29.66
15709;BMP180;7954;51.914;8.420;2023-07-16T09:40:37;100035.13;;;29.75
15709;BMP180;7954;51.914;8.420;2023-07-16T09:43:06;100044.63;;;29.94
15709;BMP180;7954;51.914;8.420;2023-07-16T09:45:35;100032.41;;;30.03
15709;BMP180;7954;51.914;8.420;2023-07-16T09:48:03;100041.22;;;29.85
15709;BMP180;7954;51.914;8.420;2023-07-16T09:50:34;100035.25;;;29.86
15709;BMP180;7954;51.914;8.420;2023-07-16T09:53:04;100043.06;;;29.66
15709;BMP180;7954;51.914;8.420;2023-07-16T09:55:35;100037.25;;;29.89
15709;BMP180;7954;51.914;8.420;2023-07-16T09:58:06;100035.66;;;29.81
15709;BMP180;7954;51.914;8.420;2023-07-16T10:00:37;100041.13;;;29.64
15709;BMP180;7954;51.914;8.420;2023-07-16T10:03:07;100040.47;;;29.76
15709;BMP180;7954;51.914;8.420;2023-07-16T10:05:37;100052.31;;;29.83
15709;BMP180;7954;51.914;8.420;2023-07-16T10:08:15;100050.13;;;29.67
15709;BMP180;7954;51.914;8.420;2023-07-16T10:10:45;100045.47;;;29.93
15709;BMP180;7954;51.914;8.420;2023-07-16T10:13:16;100043.03;;;30.26
15709;BMP180;7954;51.914;8.420;2023-07-16T10:15:52;100051.75;;;30.56
15709;BMP180;7954;51.914;8.420;2023-07-16T10:18:29;100049.09;;;30.66
15709;BMP180;7954;51.914;8.420;2023-07-16T10:21:06;100040.94;;;31.04
15709;BMP180;7954;51.914;8.420;2023-07-16T10:23:39;100056.28;;;30.90
15709;BMP180;7954;51.914;8.420;2023-07-16T10:26:10;100049.34;;;30.90
15709;BMP180;7954;51.914;8.420;2023-07-16T10:28:44;100055.28;;;30.78
15709;BMP180;7954;51.914;8.420;2023-07-16T10:31:20;100057.44;;;30.93
15709;BMP180;7954;51.914;8.420;2023-07-16T10:33:59;100058.81;;;31.10
15709;BMP180;7954;51.914;8.420;2023-07-16T10:36:29;100055.56;;;31.45
15709;BMP180;7954;51.914;8.420;2023-07-16T10:39:04;100052.63;;;31.62
15709;BMP180;7954;51.914;8.420;2023-07-16T10:41:33;100049.22;;;31.63
15709;BMP180;7954;51.914;8.420;2023-07-16T10:44:01;100061.53;;;31.75
15709;BMP180;7954;51.914;8.420;2023-07-16T10:46:30;100045.56;;;31.61
15709;BMP180;7954;51.914;8.420;2023-07-16T10:48:59;100046.25;;;31.58
15709;BMP180;7954;51.914;8.420;2023-07-16T10:51:29;100068.13;;;31.82
15709;BMP180;7954;51.914;8.420;2023-07-16T10:53:57;100059.38;;;32.25
15709;BMP180;7954;51.914;8.420;2023-07-16T10:56:25;100060.72;;;32.09
15709;BMP180;7954;51.914;8.420;2023-07-16T10:58:54;100062.56;;;32.10
15709;BMP180;7954;51.914;8.420;2023-07-16T11:01:22;100065.59;;;31.72
15709;BMP180;7954;51.914;8.420;2023-07-16T11:03:50;100065.03;;;31.76
15709;BMP180;7954;51.914;8.420;2023-07-16T11:06:18;100059.72;;;31.86
15709;BMP180;7954;51.914;8.420;2023-07-16T11:08:48;100059.94;;;31.77
15709;BMP180;7954;51.914;8.420;2023-07-16T11:11:27;100071.06;;;31.75
15709;BMP180;7954;51.914;8.420;2023-07-16T11:13:55;100059.38;;;32.02
15709;BMP180;7954;51.914;8.420;2023-07-16T11:16:23;100059.03;;;31.77
15709;BMP180;7954;51.914;8.420;2023-07-16T11:18:52;100072.22;;;31.78
15709;BMP180;7954;51.914;8.420;2023-07-16T11:21:20;100059.63;;;31.95
15709;BMP180;7954;51.914;8.420;2023-07-16T11:23:50;100063.59;;;31.91
15709;BMP180;7954;51.914;8.420;2023-07-16T11:26:18;100060.84;;;32.22
15709;BMP180;7954;51.914;8.420;2023-07-16T11:28:50;100060.63;;;32.19
15709;BMP180;7954;51.914;8.420;2023-07-16T11:31:18;100056.25;;;31.96
15709;BMP180;7954;51.914;8.420;2023-07-16T11:33:50;100066.38;;;32.03
15709;BMP180;7954;51.914;8.420;2023-07-16T11:36:18;100064.81;;;32.17
15709;BMP180;7954;51.914;8.420;2023-07-16T11:38:49;100069.56;;;32.11
15709;BMP180;7954;51.914;8.420;2023-07-16T11:41:20;100072.13;;;32.32
15709;BMP180;7954;51.914;8.420;2023-07-16T11:43:49;100076.13;;;32.39
15709;BMP180;7954;51.914;8.420;2023-07-16T11:46:17;100074.41;;;32.39
15709;BMP180;7954;51.914;8.420;2023-07-16T11:48:45;100073.31;;;32.59
15709;BMP180;7954;51.914;8.420;2023-07-16T11:51:13;100086.13;;;32.44
15709;BMP180;7954;51.914;8.420;2023-07-16T11:53:41;100067.13;;;32.24
15709;BMP180;7954;51.914;8.420;2023-07-16T11:56:12;100069.63;;;32.22
15709;BMP180;7954;51.914;8.420;2023-07-16T11:58:41;100072.00;;;32.31
15709;BMP180;7954;51.914;8.420;2023-07-16T12:01:09;100075.66;;;32.44
15709;BMP180;7954;51.914;8.420;2023-07-16T12:03:38;100081.94;;;32.69
15709;BMP180;7954;51.914;8.420;2023-07-16T12:06:06;100068.97;;;32.82
15709;BMP180;7954;51.914;8.420;2023-07-16T12:08:34;100073.06;;;33.13
15709;BMP180;7954;51.914;8.420;2023-07-16T12:11:02;100059.00;;;33.59
15709;BMP180;7954;51.914;8.420;2023-07-16T12:13:32;100055.44;;;33.34
15709;BMP180;7954;51.914;8.420;2023-07-16T12:16:00;100063.34;;;33.23
15709;BMP180;7954;51.914;8.420;2023-07-16T12:18:29;100067.53;;;33.32
15709;BMP180;7954;51.914;8.420;2023-07-16T12:20:58;100062.69;;;33.38
15709;BMP180;7954;51.914;8.420;2023-07-16T12:23:26;100073.03;;;33.48
15709;BMP180;7954;51.914;8.420;2023-07-16T12:25:53;100057.50;;;33.27
15709;BMP180;7954;51.914;8.420;2023-07-16T12:28:22;100072.16;;;32.89
15709;BMP180;7954;51.914;8.420;2023-07-16T12:30:52;100069.50;;;33.01
15709;BMP180;7954;51.914;8.420;2023-07-16T12:33:24;100057.06;;;33.21
15709;BMP180;7954;51.914;8.420;2023-07-16T12:35:52;100066.50;;;33.30
15709;BMP180;7954;51.914;8.420;2023-07-16T12:38:21;100074.28;;;33.18
15709;BMP180;7954;51.914;8.420;2023-07-16T12:40:50;100071.31;;;33.02
15709;BMP180;7954;51.914;8.420;2023-07-16T12:43:18;100077.16;;;32.75
15709;BMP180;7954;51.914;8.420;2023-07-16T12:45:46;100091.50;;;32.68
15709;BMP180;7954;51.914;8.420;2023-07-16T12:48:16;100088.09;;;32.69
15709;BMP180;7954;51.914;8.420;2023-07-16T12:50:44;100085.59;;;32.71
15709;BMP180;7954;51.914;8.420;2023-07-16T12:53:12;100087.25;;;32.36
15709;BMP180;7954;51.914;8.420;2023-07-16T12:55:41;100141.34;;;33.98
15709;BMP180;7954;51.914;8.420;2023-07-16T12:58:09;100067.88;;;33.61
15709;BMP180;7954;51.914;8.420;2023-07-16T13:00:37;100080.75;;;33.00
15709;BMP180;7954;51.914;8.420;2023-07-16T13:03:05;100097.19;;;32.63
15709;BMP180;7954;51.914;8.420;2023-07-16T13:05:38;100103.97;;;32.95
15709;BMP180;7954;51.914;8.420;2023-07-16T13:08:06;100088.88;;;34.23
15709;BMP180;7954;51.914;8.420;2023-07-16T13:10:35;100143.75;;;35.88
15709;BMP180;7954;51.914;8.420;2023-07-16T13:13:03;100127.66;;;36.81
15709;BMP180;7954;51.914;8.420;2023-07-16T13:15:32;100120.97;;;39.08
15709;BMP180;7954;51.914;8.420;2023-07-16T13:18:00;100141.56;;;40.82
15709;BMP180;7954;51.914;8.420;2023-07-16T13:20:28;100132.31;;;40.93
15709;BMP180;7954;51.914;8.420;2023-07-16T13:22:58;100059.97;;;38.53
15709;BMP180;7954;51.914;8.420;2023-07-16T13:25:27;100076.97;;;38.09
15709;BMP180;7954;51.914;8.420;2023-07-16T13:27:56;100085.09;;;37.80
15709;BMP180;7954;51.914;8.420;2023-07-16T13:30:24;100112.38;;;37.97
15709;BMP180;7954;51.914;8.420;2023-07-16T13:32:53;100146.19;;;40.28
15709;BMP180;7954;51.914;8.420;2023-07-16T13:35:22;100115.00;;;40.41
15709;BMP180;7954;51.914;8.420;2023-07-16T13:37:51;100121.50;;;40.88
15709;BMP180;7954;51.914;8.420;2023-07-16T13:40:20;100072.25;;;40.73
15709;BMP180;7954;51.914;8.420;2023-07-16T13:42:50;100081.09;;;39.40
15709;BMP180;7954;51.914;8.420;2023-07-16T13:45:20;100116.38;;;37.58
15709;BMP180;7954;51.914;8.420;2023-07-16T13:47:49;100152.31;;;39.72
15709;BMP180;7954;51.914;8.420;2023-07-16T13:50:18;100128.41;;;39.88
15709;BMP180;7954;51.914;8.420;2023-07-16T13:52:46;100153.22;;;41.70
15709;BMP180;7954;51.914;8.420;2023-07-16T13:55:14;100133.25;;;43.25
15709;BMP180;7954;51.914;8.420;2023-07-16T13:57:44;100092.69;;;43.88
15709;BMP180;7954;51.914;8.420;2023-07-16T14:00:13;100110.41;;;44.47
15709;BMP180;7954;51.914;8.420;2023-07-16T14:02:42;100079.69;;;42.14
15709;BMP180;7954;51.914;8.420;2023-07-16T14:05:11;100081.97;;;42.27
15709;BMP180;7954;51.914;8.420;2023-07-16T14:07:39;100127.16;;;42.52
15709;BMP180;7954;51.914;8.420;2023-07-16T14:10:07;100142.66;;;41.93
15709;BMP180;7954;51.914;8.420;2023-07-16T14:12:35;100110.88;;;41.51
15709;BMP180;7954;51.914;8.420;2023-07-16T14:15:05;100151.50;;;40.67
15709;BMP180;7954;51.914;8.420;2023-07-16T14:17:34;100097.78;;;42.24
15709;BMP180;7954;51.914;8.420;2023-07-16T14:20:02;100160.88;;;42.29
15709;BMP180;7954;51.914;8.420;2023-07-16T14:22:30;100091.56;;;43.52
15709;BMP180;7954;51.914;8.420;2023-07-16T14:24:58;100175.28;;;41.89
15709;BMP180;7954;51.914;8.420;2023-07-16T14:27:26;100162.94;;;42.61
15709;BMP180;7954;51.914;8.420;2023-07-16T14:29:54;100146.06;;;43.91